Time;durP1;ratioP1;P1;durP2;ratioP2;P2;SDS_P1;SDS_P2;PMS_P1;PMS_P2;Temp;Humidity;BMP_temperature;BMP_pressure;BME280_temperature;BME280_humidity;BME280_pressure;Samples;Min_cycle;Max_cycle;Signal;HPM_P1;HPM_P2
2022/07/19 00:00:16;;;;;;;;;6.50;5.25;;;;;31.21;24.76;101118.56;5058208;28;45358;-72
2022/07/19 00:02:43;;;;;;;;;5.25;5.25;;;;;31.13;25.13;101106.63;5034190;28;47162;-71
2022/07/19 00:05:13;;;;;;;;;5.80;5.00;;;;;30.74;25.31;101044.69;5055610;28;45395;-70
2022/07/19 00:07:40;;;;;;;;;6.00;6.00;;;;;30.56;25.25;101021.81;5054286;28;45579;-68
2022/07/19 00:10:08;;;;;;;;;6.00;4.00;;;;;31.01;25.66;101094.94;5055414;28;45375;-69
2022/07/19 00:12:35;;;;;;;;;5.25;5.25;;;;;31.03;25.35;101099.22;5055933;28;45442;-71
2022/07/19 00:15:02;;;;;;;;;5.00;5.00;;;;;30.91;25.17;101086.69;5036826;28;45813;-69
2022/07/19 00:17:28;;;;;;;;;7.50;6.00;;;;;31.02;25.06;101111.06;5055613;28;45489;-71
2022/07/19 00:19:53;;;;;;;;;6.50;5.00;;;;;31.00;25.15;101104.03;5055297;28;45344;-72
2022/07/19 00:22:19;;;;;;;;;5.25;5.25;;;;;30.79;25.69;101074.09;5055064;28;45369;-72
2022/07/19 00:24:44;;;;;;;;;6.75;6.25;;;;;30.88;24.83;101099.59;5054611;28;45449;-70
2022/07/19 00:27:10;;;;;;;;;7.50;6.25;;;;;30.82;25.39;101101.78;5054868;28;45359;-71
2022/07/19 00:29:35;;;;;;;;;5.50;5.50;;;;;30.66;25.38;101076.91;5055426;28;45494;-74
2022/07/19 00:32:01;;;;;;;;;6.00;5.25;;;;;30.76;25.72;101104.94;5054796;28;45953;-69
2022/07/19 00:34:27;;;;;;;;;5.75;5.00;;;;;30.70;25.44;101100.00;5054952;28;45500;-69
2022/07/19 00:37:02;;;;;;;;;6.25;5.00;;;;;30.61;25.71;101079.97;5057633;28;45551;-70
2022/07/19 00:39:27;;;;;;;;;5.50;5.00;;;;;30.73;25.32;101096.19;5053998;28;45591;-68
2022/07/19 00:41:53;;;;;;;;;4.50;4.50;;;;;30.73;25.73;101098.88;5055449;28;45461;-69
2022/07/19 00:44:22;;;;;;;;;5.25;5.25;;;;;30.74;25.42;101098.78;5054648;28;45989;-70
2022/07/19 00:46:48;;;;;;;;;8.00;6.25;;;;;30.64;25.26;101093.22;5057682;28;45476;-72
2022/07/19 00:49:13;;;;;;;;;6.50;6.00;;;;;30.58;25.12;101080.16;5057607;28;45566;-69
2022/07/19 00:51:42;;;;;;;;;6.25;5.00;;;;;30.55;25.40;101088.53;5054664;28;45931;-72
2022/07/19 00:54:10;;;;;;;;;8.00;5.00;;;;;30.53;25.49;101073.41;5056006;28;45584;-71
2022/07/19 00:56:37;;;;;;;;;5.00;4.50;;;;;30.53;25.31;101068.84;5057511;28;45420;-71
2022/07/19 00:59:04;;;;;;;;;5.00;5.00;;;;;30.61;26.16;101079.97;5055957;28;45772;-70
2022/07/19 01:01:30;;;;;;;;;4.75;4.75;;;;;30.63;26.00;101086.09;5053980;28;45988;-70
2022/07/19 01:03:56;;;;;;;;;4.50;4.50;;;;;30.59;26.08;101083.75;5053829;28;45861;-70
2022/07/19 01:06:22;;;;;;;;;5.50;5.00;;;;;30.52;26.14;101082.50;5054158;28;45458;-71
2022/07/19 01:08:54;;;;;;;;;6.25;5.25;;;;;30.38;26.22;101061.94;5053306;28;45504;-72
2022/07/19 01:11:20;;;;;;;;;5.00;5.00;;;;;30.52;25.91;101077.97;5052120;28;45992;-70
2022/07/19 01:13:46;;;;;;;;;6.75;5.25;;;;;30.53;25.43;101079.66;5057706;28;45492;-72
2022/07/19 01:16:12;;;;;;;;;4.00;4.00;;;;;30.46;26.26;101073.00;5059149;28;45288;-73
2022/07/19 01:18:37;;;;;;;;;5.25;5.25;;;;;30.58;26.00;101071.19;5059114;28;45506;-73
2022/07/19 01:21:04;;;;;;;;;3.25;3.25;;;;;30.56;26.29;101078.56;5037089;28;48030;-73
2022/07/19 01:23:30;;;;;;;;;4.75;3.50;;;;;30.43;25.79;101071.41;5054818;28;45508;-71
2022/07/19 01:25:56;;;;;;;;;2.75;2.75;;;;;30.40;25.94;101058.13;5056756;28;45415;-73
2022/07/19 01:28:21;;;;;;;;;5.50;4.00;;;;;30.55;26.18;101076.84;5058280;28;45511;-70
2022/07/19 01:30:47;;;;;;;;;6.67;4.67;;;;;30.50;26.16;101074.50;5058478;28;45526;-71
2022/07/19 01:33:13;;;;;;;;;4.00;4.00;;;;;30.37;26.40;101058.38;5057622;28;45367;-71
2022/07/19 01:35:38;;;;;;;;;7.25;5.75;;;;;30.48;26.20;101079.16;5059225;28;45352;-71
2022/07/19 01:38:04;;;;;;;;;4.00;4.00;;;;;30.42;26.03;101066.09;5061409;28;45313;-72
2022/07/19 01:40:30;;;;;;;;;5.50;4.25;;;;;30.42;25.83;101079.63;5062294;28;45323;-72
2022/07/19 01:42:56;;;;;;;;;6.00;4.00;;;;;30.31;25.92;101052.56;5062536;28;46962;-72
2022/07/19 01:45:22;;;;;;;;;5.00;4.75;;;;;30.32;25.87;101068.66;5061122;28;45267;-74
2022/07/19 01:47:48;;;;;;;;;4.75;4.75;;;;;30.18;26.16;101061.59;5040327;28;45474;-73
2022/07/19 01:50:16;;;;;;;;;5.25;5.25;;;;;30.15;26.26;101060.94;5058040;28;46224;-71
2022/07/19 01:52:42;;;;;;;;;5.00;5.00;;;;;30.10;26.37;101063.97;5057121;28;45477;-71
2022/07/19 01:55:09;;;;;;;;;5.00;4.50;;;;;30.06;26.88;101069.72;5056098;28;45418;-71
2022/07/19 01:57:34;;;;;;;;;5.50;5.00;;;;;30.03;26.48;101070.81;5055622;28;45438;-71
2022/07/19 02:00:00;;;;;;;;;6.00;4.25;;;;;29.91;26.91;101048.28;5054812;28;45351;-68
2022/07/19 02:02:26;;;;;;;;;6.00;5.25;;;;;29.94;26.65;101063.41;5054265;28;45342;-71
2022/07/19 02:04:52;;;;;;;;;6.25;6.00;;;;;29.87;26.76;101070.25;5054267;28;45293;-71
2022/07/19 02:07:18;;;;;;;;;6.25;6.25;;;;;29.75;27.20;101063.91;5053010;28;45296;-71
2022/07/19 02:09:44;;;;;;;;;5.25;5.25;;;;;29.75;27.03;101063.91;5053340;28;45343;-71
2022/07/19 02:12:09;;;;;;;;;5.25;5.25;;;;;29.71;27.22;101057.00;5035492;28;46001;-69
2022/07/19 02:14:35;;;;;;;;;6.50;5.50;;;;;29.74;27.57;101067.59;5053572;28;45796;-71
2022/07/19 02:17:01;;;;;;;;;7.25;4.50;;;;;29.54;27.33;101048.28;5053794;28;45462;-71
2022/07/19 02:19:26;;;;;;;;;5.75;5.75;;;;;29.72;27.75;101064.13;5051906;28;46992;-71
2022/07/19 02:21:52;;;;;;;;;6.00;6.00;;;;;29.64;27.39;101045.78;5053160;28;45482;-71
2022/07/19 02:24:17;;;;;;;;;4.00;4.00;;;;;29.58;27.84;101049.78;5055680;28;45491;-71
2022/07/19 02:26:43;;;;;;;;;5.00;5.00;;;;;29.63;27.58;101053.97;5056702;28;45407;-71
2022/07/19 02:29:14;;;;;;;;;5.50;5.00;;;;;29.66;27.73;101056.44;5057033;28;46093;-72
2022/07/19 02:31:39;;;;;;;;;6.25;6.00;;;;;29.49;27.65;101031.56;5054928;28;45469;-71
2022/07/19 02:34:05;;;;;;;;;4.50;4.25;;;;;29.45;27.98;101040.88;5038156;28;45469;-72
2022/07/19 02:36:30;;;;;;;;;6.75;5.50;;;;;29.51;27.67;101040.41;5059582;28;45379;-72
2022/07/19 02:38:58;;;;;;;;;5.00;5.00;;;;;29.46;27.96;101045.28;5057902;28;45378;-71
2022/07/19 02:41:23;;;;;;;;;5.00;5.00;;;;;29.35;27.94;101042.47;5056503;28;45512;-72
2022/07/19 02:43:49;;;;;;;;;5.25;5.25;;;;;29.39;28.27;101039.47;5038617;28;45558;-72
2022/07/19 02:46:14;;;;;;;;;5.00;5.00;;;;;29.22;28.09;101006.59;5057530;28;45408;-71
2022/07/19 02:48:40;;;;;;;;;4.00;4.00;;;;;29.46;27.67;101030.94;5056280;28;45431;-72
2022/07/19 02:51:11;;;;;;;;;5.50;4.75;;;;;29.51;28.02;101039.53;5056490;28;45630;-71
2022/07/19 02:53:37;;;;;;;;;6.50;6.00;;;;;29.42;28.01;101024.03;5059761;28;45374;-72
2022/07/19 02:56:03;;;;;;;;;4.50;4.50;;;;;29.44;28.04;101022.06;5060386;28;45569;-71
2022/07/19 02:58:28;;;;;;;;;5.50;5.50;;;;;29.50;27.60;101030.59;5059520;28;46113;-71
2022/07/19 03:00:54;;;;;;;;;4.75;4.75;;;;;29.44;27.60;101020.22;5055848;28;45797;-71
2022/07/19 03:06:04;;;;;;;;;5.00;4.75;;;;;29.51;28.14;101034.16;5056425;28;45999;-70
2022/07/19 03:08:30;;;;;;;;;6.75;5.00;;;;;29.45;27.88;101024.69;5055871;28;46046;-70
2022/07/19 03:10:55;;;;;;;;;5.25;4.75;;;;;29.51;28.04;101032.31;5056466;28;45426;-72
2022/07/19 03:13:21;;;;;;;;;7.75;5.00;;;;;29.49;28.23;101020.75;5055708;28;45632;-71
2022/07/19 03:15:47;;;;;;;;;6.75;6.75;;;;;29.46;28.26;101025.53;5058148;28;45434;-69
2022/07/19 03:18:19;;;;;;;;;5.75;5.75;;;;;29.24;28.19;101012.75;5055690;28;45490;-71
2022/07/19 03:20:44;;;;;;;;;7.75;6.00;;;;;29.23;28.14;101025.34;5055539;28;45565;-69
2022/07/19 03:23:10;;;;;;;;;9.50;6.00;;;;;29.19;27.94;101021.16;5059143;28;45338;-70
2022/07/19 03:25:36;;;;;;;;;14.00;6.25;;;;;29.21;28.14;101035.41;5056427;28;45475;-69
2022/07/19 03:28:01;;;;;;;;;7.75;7.00;;;;;29.10;28.70;101016.44;5037521;28;46704;-71
2022/07/19 03:30:33;;;;;;;;;7.00;7.00;;;;;29.03;28.56;101020.50;5055436;28;45339;-71
2022/07/19 03:32:59;;;;;;;;;7.00;5.00;;;;;29.01;28.84;101022.44;5058284;28;45409;-71
2022/07/19 03:35:27;;;;;;;;;6.00;6.00;;;;;28.86;28.57;101005.53;5055989;28;45328;-71
2022/07/19 03:37:53;;;;;;;;;6.75;6.50;;;;;29.04;29.30;101033.84;5055472;28;46014;-72
2022/07/19 03:40:19;;;;;;;;;7.50;7.00;;;;;28.71;28.78;100980.50;5055674;28;45513;-69
2022/07/19 03:42:44;;;;;;;;;6.00;6.00;;;;;28.98;28.76;101034.31;5057730;28;45784;-71
2022/07/19 03:45:10;;;;;;;;;6.25;5.00;;;;;28.90;28.88;101031.28;5057549;28;45560;-69
2022/07/19 03:47:36;;;;;;;;;7.25;7.25;;;;;28.90;28.32;101036.66;5055830;28;46304;-73
2022/07/19 03:50:02;;;;;;;;;8.75;6.75;;;;;28.82;29.57;101036.34;5058416;28;45458;-70
2022/07/19 03:52:27;;;;;;;;;8.25;7.75;;;;;28.71;29.28;101020.91;5057838;28;45823;-72
2022/07/19 03:54:53;;;;;;;;;7.25;7.00;;;;;28.75;28.93;101019.75;5057349;28;45377;-70
2022/07/19 03:57:19;;;;;;;;;7.75;6.00;;;;;28.75;29.03;101028.69;5061086;28;46000;-71
2022/07/19 03:59:44;;;;;;;;;8.25;8.25;;;;;28.71;28.55;101019.13;5061462;28;45292;-70
2022/07/19 04:02:10;;;;;;;;;10.25;7.25;;;;;28.68;28.69;101022.00;5059471;28;45278;-72
2022/07/19 04:04:35;;;;;;;;;10.25;7.75;;;;;28.72;28.55;101022.66;5030701;28;45529;-72
2022/07/19 04:07:01;;;;;;;;;9.50;9.25;;;;;28.66;28.96;101023.94;5058145;28;45997;-70
2022/07/19 04:09:27;;;;;;;;;10.33;10.33;;;;;28.71;29.04;101037.09;5056166;28;45316;-71
2022/07/19 04:11:52;;;;;;;;;10.00;8.75;;;;;28.64;28.96;101034.00;5058076;28;45915;-72
2022/07/19 04:14:18;;;;;;;;;11.75;9.25;;;;;28.61;29.12;101023.41;5057569;28;45600;-72
2022/07/19 04:16:43;;;;;;;;;10.00;9.00;;;;;28.56;29.09;101030.94;5059821;28;45596;-71
2022/07/19 04:19:09;;;;;;;;;9.00;8.67;;;;;28.53;29.28;101010.47;5057278;28;45595;-72
2022/07/19 04:21:39;;;;;;;;;11.50;10.25;;;;;28.59;29.23;101016.38;5039525;28;45315;-72
2022/07/19 04:24:05;;;;;;;;;10.33;8.67;;;;;28.51;29.22;101012.41;5055697;28;45759;-72
2022/07/19 04:26:31;;;;;;;;;10.67;10.00;;;;;28.65;29.11;101024.06;5056001;28;46088;-70
2022/07/19 04:28:56;;;;;;;;;8.50;8.50;;;;;28.62;29.16;101030.53;5068548;28;45517;-72
2022/07/19 04:31:22;;;;;;;;;13.33;12.00;;;;;28.55;29.05;101023.84;5055682;28;45728;-72
2022/07/19 04:33:47;;;;;;;;;12.67;10.00;;;;;28.50;28.94;101024.16;5064145;28;45561;-71
2022/07/19 04:36:13;;;;;;;;;11.67;11.00;;;;;28.46;29.24;101022.63;5058903;28;45304;-72
2022/07/19 04:38:39;;;;;;;;;11.33;10.00;;;;;28.45;28.88;101023.59;5057331;28;45331;-70
2022/07/19 04:41:04;;;;;;;;;10.67;9.33;;;;;28.44;29.19;101019.16;5054764;28;45656;-72
2022/07/19 04:43:30;;;;;;;;;14.00;12.00;;;;;28.39;29.11;101015.06;5054516;28;45549;-70
2022/07/19 04:45:59;;;;;;;;;9.00;8.33;;;;;28.37;29.27;101023.22;5061269;28;46109;-72
2022/07/19 04:48:27;;;;;;;;;25.67;21.00;;;;;28.39;29.73;101012.34;5036766;28;45437;-71
2022/07/19 04:50:53;;;;;;;;;20.67;19.33;;;;;28.47;29.78;101016.25;5054517;28;45462;-72
2022/07/19 04:53:19;;;;;;;;;14.00;13.33;;;;;28.44;29.40;101008.38;5056542;28;45548;-72
2022/07/19 04:55:48;;;;;;;;;14.33;12.33;;;;;28.50;29.48;101012.53;5055981;28;46230;-73
2022/07/19 04:58:15;;;;;;;;;12.67;12.67;;;;;28.42;29.55;101020.22;5055863;28;45292;-74
2022/07/19 05:00:40;;;;;;;;;10.67;10.67;;;;;28.39;29.53;101013.22;5054165;28;45791;-71
2022/07/19 05:03:06;;;;;;;;;12.67;12.33;;;;;28.29;29.88;100986.06;5054823;28;45564;-70
2022/07/19 05:05:32;;;;;;;;;16.00;12.33;;;;;28.43;29.65;101006.66;5038341;28;46355;-69
2022/07/19 05:07:58;;;;;;;;;14.00;11.33;;;;;28.33;29.36;100987.56;5052060;28;45867;-70
2022/07/19 05:10:23;;;;;;;;;13.00;11.33;;;;;28.53;29.20;101005.06;5053692;28;45474;-70
2022/07/19 05:12:49;;;;;;;;;13.33;12.33;;;;;28.57;29.29;101003.03;5053706;28;45371;-68
2022/07/19 05:15:15;;;;;;;;;14.33;12.33;;;;;28.58;29.52;100995.81;5053627;28;45906;-68
2022/07/19 05:17:42;;;;;;;;;10.33;10.33;;;;;28.62;30.18;100997.34;5053738;28;45519;-69
2022/07/19 05:20:07;;;;;;;;;15.33;12.67;;;;;28.51;29.86;100987.28;5054250;28;45448;-70
2022/07/19 05:22:33;;;;;;;;;15.00;12.00;;;;;28.59;29.74;100994.84;5054984;28;45669;-70
2022/07/19 05:24:59;;;;;;;;;13.00;13.00;;;;;28.51;29.12;100982.75;5053690;28;45917;-71
2022/07/19 05:27:25;;;;;;;;;13.00;12.33;;;;;28.57;29.34;100996.78;5054054;28;45615;-70
2022/07/19 05:29:50;;;;;;;;;12.67;11.00;;;;;28.52;29.59;100999.78;5053965;28;45492;-71
2022/07/19 05:32:16;;;;;;;;;14.00;14.00;;;;;28.61;29.40;101009.06;5053363;28;45740;-70
2022/07/19 05:34:42;;;;;;;;;12.67;12.67;;;;;28.52;29.97;100997.09;5053133;28;46653;-70
2022/07/19 05:37:07;;;;;;;;;13.00;11.00;;;;;28.57;29.42;101013.81;5053434;28;45573;-70
2022/07/19 05:39:40;;;;;;;;;12.67;12.33;;;;;28.49;29.92;100987.38;5055845;28;45271;-70
2022/07/19 05:42:05;;;;;;;;;12.00;11.67;;;;;28.65;29.55;101000.66;5056313;28;45390;-70
2022/07/19 05:44:35;;;;;;;;;13.33;11.67;;;;;28.78;29.56;101005.19;5035399;28;46575;-70
2022/07/19 05:47:15;;;;;;;;;13.00;11.67;;;;;28.83;29.56;101000.34;5053823;28;45513;-71
2022/07/19 05:49:41;;;;;;;;;12.00;12.00;;;;;28.77;29.07;100990.00;5049869;28;45477;-69
2022/07/19 05:52:18;;;;;;;;;19.67;13.00;;;;;28.74;29.38;101004.56;5036947;28;45553;-71
2022/07/19 05:54:43;;;;;;;;;14.67;13.00;;;;;28.70;29.67;101001.19;5051961;28;46226;-72
2022/07/19 05:57:18;;;;;;;;;14.33;12.67;;;;;28.67;29.57;100984.41;5053523;28;45509;-71
2022/07/19 05:59:44;;;;;;;;;14.00;13.00;;;;;28.76;29.54;101002.63;5056899;28;45352;-70
2022/07/19 06:02:09;;;;;;;;;13.33;12.33;;;;;28.76;29.44;100978.38;5056621;28;45505;-71
2022/07/19 06:04:35;;;;;;;;;13.67;12.67;;;;;28.87;29.74;100991.06;5038353;28;45564;-70
2022/07/19 06:07:01;;;;;;;;;15.00;12.67;;;;;28.82;29.78;100980.59;5057027;28;45547;-70
2022/07/19 06:09:26;;;;;;;;;18.00;13.00;;;;;28.97;29.69;100994.81;5056759;28;45747;-70
2022/07/19 06:11:52;;;;;;;;;16.00;13.33;;;;;28.95;29.38;100991.41;5057001;28;45403;-69
2022/07/19 06:14:19;;;;;;;;;17.33;13.00;;;;;28.96;29.74;100985.03;5056260;28;45514;-71
2022/07/19 06:16:44;;;;;;;;;15.00;12.00;;;;;29.00;29.98;100982.94;5057432;28;45451;-69
2022/07/19 06:19:11;;;;;;;;;14.67;12.67;;;;;29.05;29.46;100978.13;5058359;28;45394;-71
2022/07/19 06:21:37;;;;;;;;;11.33;11.33;;;;;29.01;29.96;100953.19;5059003;28;45489;-70
2022/07/19 06:24:03;;;;;;;;;14.67;14.33;;;;;29.26;29.28;100981.09;5058582;28;45468;-71
2022/07/19 06:26:29;;;;;;;;;16.33;13.33;;;;;29.32;29.42;100980.66;5058231;28;45446;-71
2022/07/19 06:28:54;;;;;;;;;14.00;14.00;;;;;29.35;29.55;100984.03;5057459;28;45884;-71
2022/07/19 06:31:20;;;;;;;;;14.33;13.67;;;;;29.46;28.74;100972.41;5057532;28;45745;-70
2022/07/19 06:33:48;;;;;;;;;13.00;13.00;;;;;29.58;28.96;100963.41;5056824;28;45505;-70
2022/07/19 06:36:14;;;;;;;;;15.33;15.00;;;;;29.76;28.91;100973.88;5056163;28;45494;-69
2022/07/19 06:38:41;;;;;;;;;15.00;14.67;;;;;29.76;28.94;100963.91;5055856;28;45545;-69
2022/07/19 06:41:07;;;;;;;;;15.00;12.33;;;;;29.76;28.39;100958.53;5057362;28;45565;-70
2022/07/19 06:43:32;;;;;;;;;11.50;10.25;;;;;29.83;28.89;100941.84;5056902;28;45336;-70
2022/07/19 06:45:58;;;;;;;;;14.00;13.67;;;;;29.95;28.29;100952.59;5060133;28;45371;-69
2022/07/19 06:48:24;;;;;;;;;14.33;12.67;;;;;30.15;28.70;100951.03;5058158;28;45327;-69
2022/07/19 06:50:50;;;;;;;;;13.67;13.33;;;;;30.36;28.39;100950.41;5038162;28;45478;-69
2022/07/19 06:53:19;;;;;;;;;12.75;12.00;;;;;30.23;27.94;100918.91;5055991;28;45614;-69
2022/07/19 06:55:45;;;;;;;;;16.75;12.50;;;;;30.51;27.67;100945.63;5055886;28;45429;-70
2022/07/19 06:58:10;;;;;;;;;14.75;12.00;;;;;30.73;27.31;100945.66;5056244;28;45363;-70
2022/07/19 07:00:36;;;;;;;;;15.33;13.67;;;;;30.81;26.93;100951.31;5055560;28;45649;-70
2022/07/19 07:03:01;;;;;;;;;11.75;10.25;;;;;30.70;27.43;100945.88;5055904;28;45862;-71
2022/07/19 07:05:28;;;;;;;;;14.33;11.67;;;;;30.70;27.79;100945.88;5055887;28;45326;-71
2022/07/19 07:07:54;;;;;;;;;14.75;13.50;;;;;31.00;27.28;100949.88;5055682;28;45430;-72
2022/07/19 07:10:20;;;;;;;;;14.25;14.00;;;;;30.87;27.29;100919.38;5060217;28;45651;-72
2022/07/19 07:12:46;;;;;;;;;14.00;13.00;;;;;31.06;27.69;100947.53;5041349;28;46553;-72
2022/07/19 07:15:12;;;;;;;;;15.00;14.33;;;;;30.89;26.97;100930.94;5058052;28;45379;-70
2022/07/19 07:17:38;;;;;;;;;13.67;12.33;;;;;31.07;27.38;100951.09;5055458;28;45289;-72
2022/07/19 07:20:05;;;;;;;;;17.00;12.00;;;;;31.03;26.98;100946.91;5055102;28;45553;-71
2022/07/19 07:22:31;;;;;;;;;12.75;12.00;;;;;31.00;27.15;100939.91;5054950;28;45478;-71
2022/07/19 07:24:57;;;;;;;;;13.50;11.50;;;;;31.09;26.93;100935.59;5055407;28;45975;-70
2022/07/19 07:27:22;;;;;;;;;13.75;13.25;;;;;31.00;27.41;100901.19;5037290;28;45369;-70
2022/07/19 07:29:48;;;;;;;;;15.67;14.33;;;;;31.20;26.89;100935.56;5055346;28;45410;-72
2022/07/19 07:32:14;;;;;;;;;17.00;13.50;;;;;31.19;27.35;100928.44;5054575;28;45473;-72
2022/07/19 07:34:39;;;;;;;;;11.75;11.00;;;;;31.22;27.26;100914.66;5054816;28;45562;-72
2022/07/19 07:37:05;;;;;;;;;13.50;12.00;;;;;31.23;27.04;100896.59;5058193;28;45407;-72
2022/07/19 07:39:31;;;;;;;;;14.00;13.00;;;;;31.40;27.21;100920.44;5037299;28;45849;-72
2022/07/19 07:41:57;;;;;;;;;17.00;13.00;;;;;31.30;27.05;100895.09;5055028;28;45364;-72
2022/07/19 07:44:35;;;;;;;;;13.50;12.75;;;;;31.53;26.91;100908.56;5054782;28;45398;-72
2022/07/19 07:47:00;;;;;;;;;14.25;11.50;;;;;31.74;26.60;100919.44;5055325;28;45350;-72
2022/07/19 07:49:26;;;;;;;;;12.25;11.25;;;;;31.73;26.74;100906.91;5055562;28;45490;-74
2022/07/19 07:51:51;;;;;;;;;13.00;11.25;;;;;31.81;26.58;100904.41;5040433;28;47038;-73
2022/07/19 07:54:17;;;;;;;;;13.25;13.25;;;;;31.79;26.79;100895.53;5058169;28;45454;-72
2022/07/19 07:56:43;;;;;;;;;12.50;11.00;;;;;31.90;26.44;100892.78;5054903;28;45372;-72
2022/07/19 07:59:09;;;;;;;;;13.25;13.25;;;;;32.06;26.43;100901.34;5055171;28;45380;-73
2022/07/19 08:01:37;;;;;;;;;15.00;13.00;;;;;32.01;26.70;100873.81;5039009;28;45523;-72
2022/07/19 08:04:03;;;;;;;;;14.75;13.00;;;;;32.10;26.41;100885.66;5058650;28;46144;-72
2022/07/19 08:06:29;;;;;;;;;14.50;12.75;;;;;32.26;25.99;100902.31;5058891;28;45456;-73
2022/07/19 08:08:59;;;;;;;;;17.00;13.50;;;;;32.28;26.36;100892.22;5054712;28;45399;-73
2022/07/19 08:11:28;;;;;;;;;14.75;12.50;;;;;32.32;26.27;100885.53;5055151;28;46119;-74
2022/07/19 08:13:54;;;;;;;;;12.50;11.75;;;;;32.52;25.92;100893.78;5056493;28;45544;-72
2022/07/19 08:16:19;;;;;;;;;15.50;13.50;;;;;32.51;26.13;100892.09;5058902;28;45391;-73
2022/07/19 08:18:45;;;;;;;;;14.50;14.50;;;;;32.53;26.04;100890.97;5037191;28;45402;-74
2022/07/19 08:21:11;;;;;;;;;17.25;15.50;;;;;32.52;26.23;100872.09;5053582;28;45648;-72
2022/07/19 08:23:37;;;;;;;;;15.25;13.75;;;;;32.69;25.72;100878.72;5053908;28;45395;-73
2022/07/19 08:26:03;;;;;;;;;12.75;12.50;;;;;32.77;25.86;100886.19;5056396;28;45438;-73
2022/07/19 08:28:28;;;;;;;;;18.00;14.50;;;;;32.75;25.30;100883.63;5058966;28;45564;-73
2022/07/19 08:30:54;;;;;;;;;18.75;15.25;;;;;32.66;25.53;100884.44;5058203;28;45444;-73
2022/07/19 08:33:19;;;;;;;;;16.50;14.25;;;;;32.67;25.58;100878.00;5054616;28;45773;-70
2022/07/19 08:35:45;;;;;;;;;14.25;13.00;;;;;32.79;25.42;100887.75;5053851;28;45428;-72
2022/07/19 08:38:11;;;;;;;;;17.00;15.50;;;;;32.72;25.35;100865.78;5054257;28;46297;-72
2022/07/19 08:40:40;;;;;;;;;18.50;15.50;;;;;32.91;24.89;100867.69;5053788;28;45787;-72
2022/07/19 08:43:07;;;;;;;;;17.25;16.25;;;;;32.87;25.04;100855.38;5056476;28;45354;-72
2022/07/19 08:45:36;;;;;;;;;18.00;14.00;;;;;32.81;25.17;100855.94;5055416;28;45725;-72
2022/07/19 08:48:04;;;;;;;;;14.25;12.25;;;;;32.94;25.51;100853.84;5054179;28;45510;-72
2022/07/19 08:50:30;;;;;;;;;13.00;13.00;;;;;33.12;24.80;100847.75;5053693;28;45400;-72
2022/07/19 08:52:58;;;;;;;;;12.00;11.25;;;;;33.24;24.36;100857.47;5053795;28;45355;-71
2022/07/19 08:55:23;;;;;;;;;14.75;12.75;;;;;33.23;24.44;100836.78;5054341;28;45454;-72
2022/07/19 08:57:59;;;;;;;;;14.00;12.75;;;;;33.38;23.44;100859.75;5056997;28;45584;-71
2022/07/19 09:00:27;;;;;;;;;14.25;11.75;;;;;33.43;23.50;100850.34;5055824;28;45402;-72
2022/07/19 09:03:04;;;;;;;;;17.75;16.50;;;;;33.55;23.41;100860.06;5057113;28;45489;-74
2022/07/19 09:05:33;;;;;;;;;13.75;12.75;;;;;33.63;23.02;100846.66;5057428;28;45505;-71
2022/07/19 09:08:03;;;;;;;;;12.75;12.25;;;;;33.69;23.26;100851.50;5039231;28;45931;-72
2022/07/19 09:10:29;;;;;;;;;13.75;13.75;;;;;33.66;22.41;100834.66;5057545;28;45514;-73
2022/07/19 09:13:01;;;;;;;;;21.25;14.50;;;;;33.84;22.34;100846.50;5059740;28;45521;-73
2022/07/19 09:15:43;;;;;;;;;14.00;13.50;;;;;33.86;21.80;100852.66;5061773;28;45324;-73
2022/07/19 09:18:14;;;;;;;;;14.00;14.00;;;;;33.88;21.84;100842.47;5058907;28;45299;-72
2022/07/19 09:20:40;;;;;;;;;14.50;13.25;;;;;34.00;21.99;100832.28;5061708;28;45497;-72
2022/07/19 09:23:06;;;;;;;;;11.00;11.00;;;;;34.07;22.11;100833.41;5057097;28;45550;-73
2022/07/19 09:25:40;;;;;;;;;10.50;10.50;;;;;34.17;21.31;100837.03;5056026;28;45327;-73
2022/07/19 09:28:08;;;;;;;;;13.75;12.50;;;;;34.16;20.95;100834.44;5054803;28;45379;-73
2022/07/19 09:30:37;;;;;;;;;18.00;12.75;;;;;34.20;21.65;100836.72;5053442;28;45343;-73
2022/07/19 09:33:15;;;;;;;;;14.75;12.50;;;;;34.21;21.28;100824.81;5053099;28;45846;-73
2022/07/19 09:35:45;;;;;;;;;14.00;12.75;;;;;34.34;21.55;100818.22;5053754;28;45446;-72
2022/07/19 09:38:23;;;;;;;;;13.25;12.25;;;;;34.32;21.24;100803.91;5054053;28;45651;-72
2022/07/19 09:40:50;;;;;;;;;13.00;13.00;;;;;34.50;21.12;100815.69;5056714;28;45591;-70
2022/07/19 09:43:19;;;;;;;;;14.25;14.25;;;;;34.50;21.05;100795.78;5036163;28;45563;-70
2022/07/19 09:45:45;;;;;;;;;12.50;12.25;;;;;34.67;20.91;100815.91;5053621;28;45375;-71
2022/07/19 09:48:11;;;;;;;;;15.75;15.25;;;;;34.67;21.39;100777.84;5053694;28;45422;-72
2022/07/19 09:50:37;;;;;;;;;12.00;12.00;;;;;34.91;20.46;100794.44;5051636;28;47270;-71
2022/07/19 09:53:05;;;;;;;;;12.00;12.00;;;;;34.88;20.32;100789.28;5053546;28;45494;-69
2022/07/19 09:55:31;;;;;;;;;11.25;11.25;;;;;34.84;19.59;100785.19;5035784;28;45430;-70
2022/07/19 09:58:01;;;;;;;;;10.00;9.00;;;;;34.96;19.83;100791.25;5054191;28;45334;-68
2022/07/19 10:00:32;;;;;;;;;13.75;11.00;;;;;35.09;19.65;100799.03;5053394;28;45831;-72
2022/07/19 10:03:00;;;;;;;;;13.60;10.60;;;;;34.98;19.46;100756.59;5040182;28;45526;-71
2022/07/19 10:05:28;;;;;;;;;11.75;10.25;;;;;35.25;19.82;100791.06;5054158;28;45776;-72
2022/07/19 10:07:54;;;;;;;;;10.50;10.50;;;;;35.28;19.60;100777.13;5053515;28;45600;-74
2022/07/19 10:10:22;;;;;;;;;13.25;11.75;;;;;35.36;19.60;100765.47;5053147;28;46401;-73
2022/07/19 10:12:50;;;;;;;;;13.20;10.80;;;;;35.51;19.22;100773.91;5055263;28;45529;-74
2022/07/19 10:15:18;;;;;;;;;10.60;10.60;;;;;35.56;19.01;100771.56;5057027;28;45593;-72
2022/07/19 10:18:12;;;;;;;;;11.00;9.25;;;;;35.64;18.76;100758.91;5066357;28;45331;-72
2022/07/19 10:20:39;;;;;;;;;11.50;11.50;;;;;35.77;18.77;100758.47;5054944;28;45688;-73
2022/07/19 10:23:05;;;;;;;;;15.00;10.20;;;;;35.73;18.17;100739.88;5053154;28;45795;-69
2022/07/19 10:25:45;;;;;;;;;10.40;10.40;;;;;35.84;17.78;100753.25;5053499;28;45593;-73
2022/07/19 10:28:31;;;;;;;;;12.75;11.25;;;;;35.94;18.45;100737.63;5058044;28;45359;-74
2022/07/19 10:30:58;;;;;;;;;11.50;10.50;;;;;35.98;17.55;100736.28;5045767;28;46235;-71
2022/07/19 10:33:38;;;;;;;;;13.20;9.20;;;;;36.04;17.85;100726.59;5056662;28;45644;-69
2022/07/19 10:36:37;;;;;;;;;11.00;9.80;;;;;36.23;17.93;100731.81;5053585;28;45533;-70
2022/07/19 10:39:21;;;;;;;;;10.00;10.00;;;;;36.38;17.07;100717.53;5041183;28;45741;-71
2022/07/19 10:42:08;;;;;;;;;11.00;11.00;;;;;36.47;16.78;100722.00;5034200;28;47901;-70
2022/07/19 10:44:56;;;;;;;;;12.40;10.60;;;;;36.54;16.87;100720.31;5057026;28;45498;-74
2022/07/19 10:47:42;;;;;;;;;12.60;11.20;;;;;36.67;17.12;100708.97;5027241;28;45425;-72
2022/07/19 10:50:10;;;;;;;;;14.50;13.00;;;;;36.85;16.80;100711.53;5055465;28;45724;-71
2022/07/19 10:52:38;;;;;;;;;10.60;10.60;;;;;36.92;16.67;100713.44;5055198;28;45711;-72
2022/07/19 10:55:20;;;;;;;;;11.80;11.60;;;;;36.97;16.58;100703.88;5055601;28;45524;-73
2022/07/19 10:58:07;;;;;;;;;12.40;11.40;;;;;36.99;16.23;100688.19;5038382;28;45332;-73
2022/07/19 11:00:48;;;;;;;;;11.00;10.00;;;;;37.17;16.37;100702.53;5055804;28;45530;-71
2022/07/19 11:03:22;;;;;;;;;14.00;11.40;;;;;37.28;15.98;100702.19;5048171;28;45548;-72
2022/07/19 11:05:58;;;;;;;;;10.00;9.80;;;;;37.40;16.05;100693.63;5038243;28;45731;-72
2022/07/19 11:08:41;;;;;;;;;11.40;10.80;;;;;37.52;15.75;100689.53;5055023;28;45614;-71
2022/07/19 11:11:21;;;;;;;;;10.50;10.50;;;;;37.49;15.24;100674.34;5049577;28;45432;-70
2022/07/19 11:13:49;;;;;;;;;13.80;11.20;;;;;37.69;15.35;100693.09;5028601;28;47789;-70
2022/07/19 11:16:14;;;;;;;;;13.40;12.20;;;;;37.76;15.66;100680.44;5050142;28;45428;-72
2022/07/19 11:18:41;;;;;;;;;14.25;13.25;;;;;37.85;15.28;100673.03;5053216;28;45579;-70